Terminal Aerodrome Forecast
Issued by NWS Pocatello, ID

Home | Current Version | Previous Version | Text Only | Print | Product List | Glossary On
Versions: 1 2 3 4 5 6 7 8 9 10 11 12 13 14 15 16 17 18 19 20 21 22 23 24
000
FTUS45 KPIH 281738
TAFIDA
TAF
KIDA 281738Z 2818/2918 36013KT P6SM VCSH BKN040 OVC060
     FM281900 36013G23KT P6SM VCSH BKN040 OVC060
     FM290000 36012KT P6SM SCT080
     FM290800 36006KT P6SM SCT080=

USA.gov is the U.S. government's official web portal to all federal, state and local government web resources and services.